sensor_id;sensor_type;location;lat;lon;timestamp;pressure;altitude;pressure_sealevel;temperature;humidity
70555;BME280;58104;52.744;15.242;2023-02-11T00:02:24;102050.83;;;19.68;36.62
70555;BME280;58104;52.744;15.242;2023-02-11T00:04:49;102028.01;;;19.70;36.48
70555;BME280;58104;52.744;15.242;2023-02-11T00:07:15;102031.11;;;19.76;36.34
70555;BME280;58104;52.744;15.242;2023-02-11T00:09:40;102024.09;;;19.67;36.38
70555;BME280;58104;52.744;15.242;2023-02-11T00:12:05;102016.13;;;19.72;36.51
70555;BME280;58104;52.744;15.242;2023-02-11T00:14:31;102012.27;;;19.61;36.66
70555;BME280;58104;52.744;15.242;2023-02-11T00:16:56;102010.33;;;19.65;36.67
70555;BME280;58104;52.744;15.242;2023-02-11T00:19:22;101988.27;;;19.50;36.85
70555;BME280;58104;52.744;15.242;2023-02-11T00:21:47;101992.02;;;19.52;37.09
70555;BME280;58104;52.744;15.242;2023-02-11T00:24:13;101984.72;;;19.46;37.24
70555;BME280;58104;52.744;15.242;2023-02-11T00:26:38;101981.40;;;19.40;37.39
70555;BME280;58104;52.744;15.242;2023-02-11T00:29:04;101987.61;;;19.30;37.59
70555;BME280;58104;52.744;15.242;2023-02-11T00:31:29;101995.76;;;19.21;37.84
70555;BME280;58104;52.744;15.242;2023-02-11T00:33:55;101992.38;;;19.14;37.99
70555;BME280;58104;52.744;15.242;2023-02-11T00:36:22;101999.61;;;19.08;38.15
70555;BME280;58104;52.744;15.242;2023-02-11T00:38:46;102008.93;;;19.09;38.27
70555;BME280;58104;52.744;15.242;2023-02-11T00:41:11;102007.26;;;19.02;38.37
70555;BME280;58104;52.744;15.242;2023-02-11T00:43:36;102010.26;;;18.96;38.54
70555;BME280;58104;52.744;15.242;2023-02-11T00:46:01;102005.15;;;19.02;38.72
70555;BME280;58104;52.744;15.242;2023-02-11T00:48:26;102005.14;;;18.89;38.87
70555;BME280;58104;52.744;15.242;2023-02-11T00:50:52;101994.69;;;18.85;39.04
70555;BME280;58104;52.744;15.242;2023-02-11T00:53:17;101984.09;;;18.80;39.09
70555;BME280;58104;52.744;15.242;2023-02-11T00:55:42;101974.96;;;18.76;39.25
70555;BME280;58104;52.744;15.242;2023-02-11T00:58:07;101966.97;;;18.78;39.29
70555;BME280;58104;52.744;15.242;2023-02-11T01:00:33;101957.87;;;18.76;39.45
70555;BME280;58104;52.744;15.242;2023-02-11T01:02:58;101955.69;;;18.78;39.41
70555;BME280;58104;52.744;15.242;2023-02-11T01:05:24;101961.90;;;18.67;39.56
70555;BME280;58104;52.744;15.242;2023-02-11T01:07:49;101956.67;;;18.63;39.72
70555;BME280;58104;52.744;15.242;2023-02-11T01:10:15;101937.07;;;18.67;39.70
70555;BME280;58104;52.744;15.242;2023-02-11T01:12:40;101925.50;;;18.67;39.86
70555;BME280;58104;52.744;15.242;2023-02-11T01:15:08;101916.58;;;18.59;39.86
70555;BME280;58104;52.744;15.242;2023-02-11T01:17:31;101921.73;;;18.58;39.97
70555;BME280;58104;52.744;15.242;2023-02-11T01:19:56;101914.50;;;18.55;40.01
70555;BME280;58104;52.744;15.242;2023-02-11T01:22:21;101924.60;;;18.56;40.03
70555;BME280;58104;52.744;15.242;2023-02-11T01:24:47;101934.90;;;18.58;40.08
70555;BME280;58104;52.744;15.242;2023-02-11T01:27:12;101941.53;;;18.60;40.09
70555;BME280;58104;52.744;15.242;2023-02-11T01:29:37;101948.97;;;18.54;40.28
70555;BME280;58104;52.744;15.242;2023-02-11T01:32:03;101951.06;;;18.51;40.42
70555;BME280;58104;52.744;15.242;2023-02-11T01:34:28;101971.27;;;18.55;40.38
70555;BME280;58104;52.744;15.242;2023-02-11T01:36:56;101960.87;;;18.55;40.48
70555;BME280;58104;52.744;15.242;2023-02-11T01:39:19;101964.11;;;18.47;40.52
70555;BME280;58104;52.744;15.242;2023-02-11T01:41:44;101957.31;;;18.51;40.76
70555;BME280;58104;52.744;15.242;2023-02-11T01:46:37;101949.04;;;18.39;40.81
70555;BME280;58104;52.744;15.242;2023-02-11T01:49:04;101943.06;;;18.28;41.14
70555;BME280;58104;52.744;15.242;2023-02-11T01:51:29;101949.13;;;18.33;40.94
70555;BME280;58104;52.744;15.242;2023-02-11T01:53:53;101943.88;;;18.37;40.95
70555;BME280;58104;52.744;15.242;2023-02-11T01:56:18;101949.13;;;18.37;41.12
70555;BME280;58104;52.744;15.242;2023-02-11T01:58:44;101955.72;;;18.39;41.05
70555;BME280;58104;52.744;15.242;2023-02-11T02:01:10;101943.88;;;18.31;40.90
70555;BME280;58104;52.744;15.242;2023-02-11T02:03:37;101930.56;;;18.35;41.20
70555;BME280;58104;52.744;15.242;2023-02-11T02:06:05;101917.64;;;18.36;41.15
70555;BME280;58104;52.744;15.242;2023-02-11T02:08:30;101903.43;;;18.36;41.22
70555;BME280;58104;52.744;15.242;2023-02-11T02:10:52;101924.76;;;18.36;41.31
70555;BME280;58104;52.744;15.242;2023-02-11T02:13:16;101920.99;;;18.33;41.39
70555;BME280;58104;52.744;15.242;2023-02-11T02:15:47;101923.39;;;18.28;41.47
70555;BME280;58104;52.744;15.242;2023-02-11T02:18:17;101910.55;;;18.26;41.46
70555;BME280;58104;52.744;15.242;2023-02-11T02:23:12;101914.76;;;18.23;41.72
70555;BME280;58104;52.744;15.242;2023-02-11T02:25:36;101919.65;;;18.19;41.49
70555;BME280;58104;52.744;15.242;2023-02-11T02:27:54;101918.33;;;18.20;41.84
70555;BME280;58104;52.744;15.242;2023-02-11T02:32:48;101925.64;;;18.19;41.76
70555;BME280;58104;52.744;15.242;2023-02-11T02:35:12;101916.84;;;18.19;41.90
70555;BME280;58104;52.744;15.242;2023-02-11T02:37:33;101907.99;;;18.20;42.04
70555;BME280;58104;52.744;15.242;2023-02-11T02:39:56;101900.51;;;18.08;42.08
70555;BME280;58104;52.744;15.242;2023-02-11T02:42:20;101909.93;;;18.11;42.16
70555;BME280;58104;52.744;15.242;2023-02-11T02:44:48;101905.84;;;18.15;42.01
70555;BME280;58104;52.744;15.242;2023-02-11T02:47:11;101900.97;;;18.22;42.06
70555;BME280;58104;52.744;15.242;2023-02-11T02:49:36;101901.53;;;18.23;42.10
70555;BME280;58104;52.744;15.242;2023-02-11T02:52:14;101892.92;;;18.20;42.17
70555;BME280;58104;52.744;15.242;2023-02-11T02:56:56;101887.65;;;18.19;42.24
70555;BME280;58104;52.744;15.242;2023-02-11T02:59:27;101877.51;;;18.16;42.20
70555;BME280;58104;52.744;15.242;2023-02-11T03:01:50;101870.06;;;18.17;42.34
70555;BME280;58104;52.744;15.242;2023-02-11T03:04:13;101866.54;;;18.17;42.45
70555;BME280;58104;52.744;15.242;2023-02-11T03:06:42;101857.57;;;18.14;42.51
70555;BME280;58104;52.744;15.242;2023-02-11T03:09:05;101846.15;;;18.17;42.57
70555;BME280;58104;52.744;15.242;2023-02-11T03:11:27;101834.92;;;18.15;42.53
70555;BME280;58104;52.744;15.242;2023-02-11T03:13:51;101836.48;;;18.11;42.57
70555;BME280;58104;52.744;15.242;2023-02-11T03:16:18;101821.84;;;18.11;42.51
70555;BME280;58104;52.744;15.242;2023-02-11T03:18:49;101813.28;;;18.09;42.52
70555;BME280;58104;52.744;15.242;2023-02-11T03:21:08;101802.65;;;18.08;42.62
70555;BME280;58104;52.744;15.242;2023-02-11T03:23:35;101801.83;;;18.07;42.71
70555;BME280;58104;52.744;15.242;2023-02-11T03:26:03;101806.30;;;18.09;42.79
70555;BME280;58104;52.744;15.242;2023-02-11T03:28:28;101806.13;;;18.05;42.84
70555;BME280;58104;52.744;15.242;2023-02-11T03:30:54;101810.84;;;18.06;42.98
70555;BME280;58104;52.744;15.242;2023-02-11T03:33:19;101811.43;;;18.08;42.83
70555;BME280;58104;52.744;15.242;2023-02-11T03:35:43;101804.11;;;18.04;42.88
70555;BME280;58104;52.744;15.242;2023-02-11T03:38:07;101807.11;;;18.15;42.99
70555;BME280;58104;52.744;15.242;2023-02-11T03:40:33;101802.27;;;18.12;43.05
70555;BME280;58104;52.744;15.242;2023-02-11T03:42:58;101803.69;;;18.11;42.99
70555;BME280;58104;52.744;15.242;2023-02-11T03:45:22;101797.38;;;18.12;42.90
70555;BME280;58104;52.744;15.242;2023-02-11T03:47:49;101798.66;;;18.03;43.12
70555;BME280;58104;52.744;15.242;2023-02-11T03:50:13;101798.75;;;18.02;43.29
70555;BME280;58104;52.744;15.242;2023-02-11T03:52:37;101790.34;;;18.10;43.41
70555;BME280;58104;52.744;15.242;2023-02-11T03:55:06;101789.01;;;18.09;43.32
70555;BME280;58104;52.744;15.242;2023-02-11T03:57:28;101782.83;;;18.09;43.33
70555;BME280;58104;52.744;15.242;2023-02-11T03:59:55;101773.99;;;18.04;43.58
70555;BME280;58104;52.744;15.242;2023-02-11T04:02:19;101773.26;;;18.09;43.82
70555;BME280;58104;52.744;15.242;2023-02-11T04:04:44;101771.30;;;18.12;43.71
70555;BME280;58104;52.744;15.242;2023-02-11T04:07:11;101769.24;;;18.05;43.79
70555;BME280;58104;52.744;15.242;2023-02-11T04:09:34;101772.67;;;18.09;43.70
70555;BME280;58104;52.744;15.242;2023-02-11T04:12:00;101769.02;;;18.09;43.75
70555;BME280;58104;52.744;15.242;2023-02-11T04:14:25;101772.54;;;18.13;43.56
70555;BME280;58104;52.744;15.242;2023-02-11T04:16:50;101768.91;;;18.11;43.73
70555;BME280;58104;52.744;15.242;2023-02-11T04:19:16;101764.95;;;18.10;43.76
70555;BME280;58104;52.744;15.242;2023-02-11T04:21:41;101759.40;;;18.10;43.61
70555;BME280;58104;52.744;15.242;2023-02-11T04:24:07;101752.88;;;18.01;43.58
70555;BME280;58104;52.744;15.242;2023-02-11T04:26:32;101755.62;;;18.08;44.12
70555;BME280;58104;52.744;15.242;2023-02-11T04:28:58;101764.25;;;18.10;44.28
70555;BME280;58104;52.744;15.242;2023-02-11T04:31:23;101763.14;;;18.13;44.09
70555;BME280;58104;52.744;15.242;2023-02-11T04:33:48;101759.80;;;18.10;44.08
70555;BME280;58104;52.744;15.242;2023-02-11T04:36:14;101765.11;;;18.13;43.85
70555;BME280;58104;52.744;15.242;2023-02-11T04:38:39;101766.57;;;18.11;43.99
70555;BME280;58104;52.744;15.242;2023-02-11T04:41:05;101773.68;;;18.19;44.01
70555;BME280;58104;52.744;15.242;2023-02-11T04:43:30;101775.01;;;18.14;44.01
70555;BME280;58104;52.744;15.242;2023-02-11T04:45:56;101776.84;;;18.11;44.08
70555;BME280;58104;52.744;15.242;2023-02-11T04:48:21;101771.86;;;18.11;43.99
70555;BME280;58104;52.744;15.242;2023-02-11T04:50:46;101766.42;;;18.03;44.20
70555;BME280;58104;52.744;15.242;2023-02-11T04:53:12;101780.96;;;18.06;43.97
70555;BME280;58104;52.744;15.242;2023-02-11T04:55:37;101781.89;;;18.16;44.08
70555;BME280;58104;52.744;15.242;2023-02-11T04:58:03;101770.76;;;18.09;44.03
70555;BME280;58104;52.744;15.242;2023-02-11T05:00:28;101775.27;;;18.13;43.91
70555;BME280;58104;52.744;15.242;2023-02-11T05:02:53;101764.35;;;18.02;43.88
70555;BME280;58104;52.744;15.242;2023-02-11T05:05:19;101742.22;;;17.96;44.11
70555;BME280;58104;52.744;15.242;2023-02-11T05:07:44;101744.04;;;18.12;43.98
70555;BME280;58104;52.744;15.242;2023-02-11T05:10:10;101731.07;;;18.11;44.18
70555;BME280;58104;52.744;15.242;2023-02-11T05:12:34;101731.38;;;18.02;44.49
70555;BME280;58104;52.744;15.242;2023-02-11T05:15:00;101727.02;;;17.99;44.44
70555;BME280;58104;52.744;15.242;2023-02-11T05:17:25;101723.92;;;18.04;44.39
70555;BME280;58104;52.744;15.242;2023-02-11T05:19:51;101712.65;;;18.01;44.57
70555;BME280;58104;52.744;15.242;2023-02-11T05:22:16;101703.31;;;18.04;44.40
70555;BME280;58104;52.744;15.242;2023-02-11T05:24:42;101704.35;;;18.09;44.28
70555;BME280;58104;52.744;15.242;2023-02-11T05:27:07;101711.47;;;18.05;44.21
70555;BME280;58104;52.744;15.242;2023-02-11T05:29:32;101699.88;;;18.13;44.34
70555;BME280;58104;52.744;15.242;2023-02-11T05:31:58;101699.82;;;18.01;44.50
70555;BME280;58104;52.744;15.242;2023-02-11T05:34:23;101698.91;;;18.13;44.41
70555;BME280;58104;52.744;15.242;2023-02-11T05:36:49;101686.92;;;18.06;44.40
70555;BME280;58104;52.744;15.242;2023-02-11T05:39:14;101700.16;;;18.00;44.87
70555;BME280;58104;52.744;15.242;2023-02-11T05:41:40;101695.59;;;18.03;44.85
70555;BME280;58104;52.744;15.242;2023-02-11T05:44:05;101694.19;;;18.02;44.85
70555;BME280;58104;52.744;15.242;2023-02-11T05:46:31;101707.95;;;18.01;44.93
70555;BME280;58104;52.744;15.242;2023-02-11T05:48:56;101707.08;;;18.06;44.91
70555;BME280;58104;52.744;15.242;2023-02-11T05:51:21;101708.76;;;18.04;44.92
70555;BME280;58104;52.744;15.242;2023-02-11T05:53:47;101709.41;;;18.08;44.81
70555;BME280;58104;52.744;15.242;2023-02-11T05:56:12;101709.60;;;18.14;44.85
70555;BME280;58104;52.744;15.242;2023-02-11T05:58:37;101715.06;;;18.10;44.70
70555;BME280;58104;52.744;15.242;2023-02-11T06:01:02;101714.85;;;18.15;44.77
70555;BME280;58104;52.744;15.242;2023-02-11T06:03:28;101710.36;;;18.07;44.72
70555;BME280;58104;52.744;15.242;2023-02-11T06:05:53;101715.81;;;18.13;44.56
70555;BME280;58104;52.744;15.242;2023-02-11T06:08:19;101702.41;;;18.10;44.53
70555;BME280;58104;52.744;15.242;2023-02-11T06:10:44;101702.06;;;18.12;44.76
70555;BME280;58104;52.744;15.242;2023-02-11T06:13:10;101698.07;;;18.14;44.99
70555;BME280;58104;52.744;15.242;2023-02-11T06:15:35;101693.49;;;18.06;45.03
70555;BME280;58104;52.744;15.242;2023-02-11T06:18:00;101715.80;;;18.01;45.14
70555;BME280;58104;52.744;15.242;2023-02-11T06:20:26;101705.70;;;18.05;45.35
70555;BME280;58104;52.744;15.242;2023-02-11T06:22:51;101696.21;;;18.01;45.24
70555;BME280;58104;52.744;15.242;2023-02-11T06:25:17;101695.89;;;17.97;45.04
70555;BME280;58104;52.744;15.242;2023-02-11T06:27:42;101685.88;;;18.02;45.14
70555;BME280;58104;52.744;15.242;2023-02-11T06:30:08;101684.05;;;18.00;45.05
70555;BME280;58104;52.744;15.242;2023-02-11T06:32:33;101674.74;;;18.10;44.99
70555;BME280;58104;52.744;15.242;2023-02-11T06:34:59;101670.75;;;17.98;45.07
70555;BME280;58104;52.744;15.242;2023-02-11T06:37:23;101663.49;;;17.96;45.37
70555;BME280;58104;52.744;15.242;2023-02-11T06:39:49;101663.84;;;17.99;45.32
70555;BME280;58104;52.744;15.242;2023-02-11T06:42:14;101664.25;;;18.02;45.45
70555;BME280;58104;52.744;15.242;2023-02-11T06:44:40;101681.90;;;18.03;45.39
70555;BME280;58104;52.744;15.242;2023-02-11T06:47:05;101676.51;;;18.02;45.40
70555;BME280;58104;52.744;15.242;2023-02-11T06:49:30;101674.60;;;18.13;45.43
70555;BME280;58104;52.744;15.242;2023-02-11T06:51:56;101677.14;;;18.05;45.24
70555;BME280;58104;52.744;15.242;2023-02-11T06:54:21;101686.01;;;18.03;45.25
70555;BME280;58104;52.744;15.242;2023-02-11T06:56:47;101680.47;;;18.03;45.84
70555;BME280;58104;52.744;15.242;2023-02-11T06:59:14;101685.71;;;18.08;45.14
70555;BME280;58104;52.744;15.242;2023-02-11T07:01:38;101697.57;;;18.03;45.04
70555;BME280;58104;52.744;15.242;2023-02-11T07:04:03;101690.56;;;18.07;44.77
70555;BME280;58104;52.744;15.242;2023-02-11T07:06:29;101697.83;;;18.09;44.89
70555;BME280;58104;52.744;15.242;2023-02-11T07:08:55;101691.07;;;18.09;45.08
70555;BME280;58104;52.744;15.242;2023-02-11T07:11:21;101690.99;;;18.03;45.14
70555;BME280;58104;52.744;15.242;2023-02-11T07:13:46;101700.05;;;18.06;44.92
70555;BME280;58104;52.744;15.242;2023-02-11T07:16:12;101690.10;;;18.01;44.95
70555;BME280;58104;52.744;15.242;2023-02-11T07:18:36;101693.77;;;18.15;45.00
70555;BME280;58104;52.744;15.242;2023-02-11T07:21:03;101684.64;;;18.07;44.82
70555;BME280;58104;52.744;15.242;2023-02-11T07:23:27;101680.23;;;17.96;45.04
70555;BME280;58104;52.744;15.242;2023-02-11T07:25:52;101680.80;;;18.09;45.26
70555;BME280;58104;52.744;15.242;2023-02-11T07:28:18;101680.79;;;18.05;45.32
70555;BME280;58104;52.744;15.242;2023-02-11T07:30:43;101686.04;;;18.04;45.44
70555;BME280;58104;52.744;15.242;2023-02-11T07:33:08;101693.44;;;18.15;45.21
70555;BME280;58104;52.744;15.242;2023-02-11T07:35:34;101690.50;;;18.09;45.42
70555;BME280;58104;52.744;15.242;2023-02-11T07:37:59;101678.97;;;18.08;45.29
70555;BME280;58104;52.744;15.242;2023-02-11T07:40:25;101671.61;;;18.12;45.24
70555;BME280;58104;52.744;15.242;2023-02-11T07:42:50;101674.78;;;18.05;45.23
70555;BME280;58104;52.744;15.242;2023-02-11T07:45:16;101671.07;;;18.03;45.28
70555;BME280;58104;52.744;15.242;2023-02-11T07:47:41;101664.68;;;18.04;45.21
70555;BME280;58104;52.744;15.242;2023-02-11T07:50:06;101672.25;;;18.04;45.24
70555;BME280;58104;52.744;15.242;2023-02-11T07:52:32;101680.41;;;18.09;45.19
70555;BME280;58104;52.744;15.242;2023-02-11T07:54:57;101692.29;;;18.09;45.13
70555;BME280;58104;52.744;15.242;2023-02-11T07:57:22;101696.23;;;18.09;45.32
70555;BME280;58104;52.744;15.242;2023-02-11T07:59:48;101710.86;;;18.08;45.32
70555;BME280;58104;52.744;15.242;2023-02-11T08:02:13;101712.87;;;18.08;45.23
70555;BME280;58104;52.744;15.242;2023-02-11T08:04:39;101721.54;;;18.06;45.32
70555;BME280;58104;52.744;15.242;2023-02-11T08:07:04;101727.99;;;18.03;45.53
70555;BME280;58104;52.744;15.242;2023-02-11T08:09:30;101730.14;;;18.02;45.73
70555;BME280;58104;52.744;15.242;2023-02-11T08:11:55;101728.75;;;18.01;45.83
70555;BME280;58104;52.744;15.242;2023-02-11T08:14:21;101730.45;;;18.02;45.69
70555;BME280;58104;52.744;15.242;2023-02-11T08:16:46;101732.33;;;17.99;45.88
70555;BME280;58104;52.744;15.242;2023-02-11T08:19:15;101730.77;;;18.02;45.85
70555;BME280;58104;52.744;15.242;2023-02-11T08:21:37;101717.29;;;18.12;45.75
70555;BME280;58104;52.744;15.242;2023-02-11T08:24:02;101714.02;;;18.01;45.76
70555;BME280;58104;52.744;15.242;2023-02-11T08:26:29;101722.58;;;18.05;45.79
70555;BME280;58104;52.744;15.242;2023-02-11T08:28:55;101712.46;;;18.13;45.72
70555;BME280;58104;52.744;15.242;2023-02-11T08:31:21;101705.31;;;18.20;45.69
70555;BME280;58104;52.744;15.242;2023-02-11T08:33:44;101704.59;;;18.15;45.69
70555;BME280;58104;52.744;15.242;2023-02-11T08:36:11;101701.56;;;18.02;45.75
70555;BME280;58104;52.744;15.242;2023-02-11T08:38:35;101695.85;;;18.04;45.62
70555;BME280;58104;52.744;15.242;2023-02-11T08:41:00;101687.23;;;18.05;46.01
70555;BME280;58104;52.744;15.242;2023-02-11T08:43:26;101688.20;;;18.12;45.97
70555;BME280;58104;52.744;15.242;2023-02-11T08:45:51;101688.06;;;18.14;45.99
70555;BME280;58104;52.744;15.242;2023-02-11T08:48:17;101690.72;;;18.05;46.06
70555;BME280;58104;52.744;15.242;2023-02-11T08:50:42;101698.57;;;18.10;46.16
70555;BME280;58104;52.744;15.242;2023-02-11T08:53:07;101701.26;;;18.16;46.34
70555;BME280;58104;52.744;15.242;2023-02-11T08:55:33;101700.60;;;18.13;46.37
70555;BME280;58104;52.744;15.242;2023-02-11T08:57:58;101702.38;;;18.03;46.44
70555;BME280;58104;52.744;15.242;2023-02-11T09:00:23;101701.64;;;18.14;46.29
70555;BME280;58104;52.744;15.242;2023-02-11T09:02:48;101698.52;;;18.16;46.32
70555;BME280;58104;52.744;15.242;2023-02-11T09:05:14;101687.69;;;18.13;46.40
70555;BME280;58104;52.744;15.242;2023-02-11T09:07:39;101695.30;;;18.12;46.51
70555;BME280;58104;52.744;15.242;2023-02-11T09:10:05;101710.27;;;18.15;46.61
70555;BME280;58104;52.744;15.242;2023-02-11T09:12:30;101707.97;;;18.19;46.64
70555;BME280;58104;52.744;15.242;2023-02-11T09:14:55;101704.17;;;18.12;46.56
70555;BME280;58104;52.744;15.242;2023-02-11T09:17:21;101699.89;;;18.14;46.68
70555;BME280;58104;52.744;15.242;2023-02-11T09:19:46;101710.09;;;18.11;46.70
70555;BME280;58104;52.744;15.242;2023-02-11T09:22:12;101724.44;;;18.28;46.61
70555;BME280;58104;52.744;15.242;2023-02-11T09:24:37;101723.72;;;18.31;44.33
70555;BME280;58104;52.744;15.242;2023-02-11T09:27:02;101731.90;;;18.39;43.20
70555;BME280;58104;52.744;15.242;2023-02-11T09:29:28;101737.29;;;18.34;42.08
70555;BME280;58104;52.744;15.242;2023-02-11T09:31:54;101743.97;;;18.36;41.96
70555;BME280;58104;52.744;15.242;2023-02-11T09:34:19;101747.83;;;18.30;41.82
70555;BME280;58104;52.744;15.242;2023-02-11T09:36:45;101747.48;;;18.25;41.57
70555;BME280;58104;52.744;15.242;2023-02-11T09:39:14;101731.03;;;18.15;41.60
70555;BME280;58104;52.744;15.242;2023-02-11T09:41:45;101740.66;;;18.08;41.53
70555;BME280;58104;52.744;15.242;2023-02-11T09:44:04;101741.22;;;18.05;41.42
70555;BME280;58104;52.744;15.242;2023-02-11T09:46:30;101750.10;;;18.07;41.42
70555;BME280;58104;52.744;15.242;2023-02-11T09:48:54;101728.98;;;17.99;41.32
70555;BME280;58104;52.744;15.242;2023-02-11T09:51:20;101731.18;;;17.95;41.37
70555;BME280;58104;52.744;15.242;2023-02-11T09:53:43;101727.13;;;17.98;41.09
70555;BME280;58104;52.744;15.242;2023-02-11T09:56:11;101717.45;;;17.94;41.01
70555;BME280;58104;52.744;15.242;2023-02-11T09:58:35;101713.17;;;17.99;40.92
70555;BME280;58104;52.744;15.242;2023-02-11T10:01:05;101716.29;;;17.97;40.96
70555;BME280;58104;52.744;15.242;2023-02-11T10:03:38;101727.73;;;17.99;40.89
70555;BME280;58104;52.744;15.242;2023-02-11T10:06:04;101719.07;;;17.99;41.10
70555;BME280;58104;52.744;15.242;2023-02-11T10:08:21;101713.64;;;17.94;41.13
70555;BME280;58104;52.744;15.242;2023-02-11T10:10:49;101697.87;;;18.00;41.08
70555;BME280;58104;52.744;15.242;2023-02-11T10:13:21;101688.82;;;17.97;41.25
70555;BME280;58104;52.744;15.242;2023-02-11T10:15:40;101682.28;;;18.08;41.25
70555;BME280;58104;52.744;15.242;2023-02-11T10:18:08;101681.42;;;18.02;41.32
70555;BME280;58104;52.744;15.242;2023-02-11T10:20:29;101669.50;;;18.06;41.19
70555;BME280;58104;52.744;15.242;2023-02-11T10:22:50;101651.80;;;18.01;41.29
70555;BME280;58104;52.744;15.242;2023-02-11T10:25:21;101651.97;;;17.99;41.24
70555;BME280;58104;52.744;15.242;2023-02-11T10:27:39;101656.79;;;17.98;41.28
70555;BME280;58104;52.744;15.242;2023-02-11T10:30:09;101653.88;;;17.95;41.48
70555;BME280;58104;52.744;15.242;2023-02-11T10:32:34;101641.67;;;17.87;41.48
70555;BME280;58104;52.744;15.242;2023-02-11T10:34:59;101625.65;;;17.93;41.52
70555;BME280;58104;52.744;15.242;2023-02-11T10:37:21;101625.36;;;17.85;41.55
70555;BME280;58104;52.744;15.242;2023-02-11T10:39:46;101627.24;;;17.90;41.60
70555;BME280;58104;52.744;15.242;2023-02-11T10:42:13;101630.13;;;17.85;41.56
70555;BME280;58104;52.744;15.242;2023-02-11T10:44:41;101643.33;;;17.87;41.55
70555;BME280;58104;52.744;15.242;2023-02-11T10:47:09;101644.02;;;17.93;41.56
70555;BME280;58104;52.744;15.242;2023-02-11T10:49:34;101649.73;;;17.82;41.52
70555;BME280;58104;52.744;15.242;2023-02-11T10:54:19;101652.50;;;17.85;41.57
70555;BME280;58104;52.744;15.242;2023-02-11T10:56:47;101652.80;;;17.89;41.49
70555;BME280;58104;52.744;15.242;2023-02-11T10:59:16;101663.41;;;17.87;41.59
70555;BME280;58104;52.744;15.242;2023-02-11T11:01:38;101665.78;;;17.91;41.63
70555;BME280;58104;52.744;15.242;2023-02-11T11:04:01;101659.78;;;17.86;41.56
70555;BME280;58104;52.744;15.242;2023-02-11T11:06:30;101660.83;;;17.91;41.55
70555;BME280;58104;52.744;15.242;2023-02-11T11:08:52;101658.18;;;17.87;41.64
70555;BME280;58104;52.744;15.242;2023-02-11T11:11:19;101658.50;;;17.85;41.68
70555;BME280;58104;52.744;15.242;2023-02-11T11:13:53;101641.59;;;17.91;41.57
70555;BME280;58104;52.744;15.242;2023-02-11T11:16:16;101650.65;;;17.78;41.66
70555;BME280;58104;52.744;15.242;2023-02-11T11:18:34;101649.96;;;17.80;41.62
70555;BME280;58104;52.744;15.242;2023-02-11T11:21:02;101642.74;;;17.93;41.58
70555;BME280;58104;52.744;15.242;2023-02-11T11:23:26;101634.59;;;17.82;41.58
70555;BME280;58104;52.744;15.242;2023-02-11T11:25:59;101632.07;;;17.81;41.61
70555;BME280;58104;52.744;15.242;2023-02-11T11:28:21;101639.77;;;17.80;41.59
70555;BME280;58104;52.744;15.242;2023-02-11T11:30:42;101651.02;;;17.82;41.55
70555;BME280;58104;52.744;15.242;2023-02-11T11:33:14;101645.73;;;17.82;41.54
70555;BME280;58104;52.744;15.242;2023-02-11T11:35:31;101645.44;;;17.83;41.52
70555;BME280;58104;52.744;15.242;2023-02-11T11:38:00;101646.99;;;17.89;41.50
70555;BME280;58104;52.744;15.242;2023-02-11T11:40:24;101661.26;;;17.91;41.50
70555;BME280;58104;52.744;15.242;2023-02-11T11:45:23;101659.95;;;17.80;41.55
70555;BME280;58104;52.744;15.242;2023-02-11T11:47:41;101665.42;;;17.83;41.50
70555;BME280;58104;52.744;15.242;2023-02-11T11:50:14;101667.04;;;17.89;41.49
70555;BME280;58104;52.744;15.242;2023-02-11T11:52:38;101668.54;;;17.84;41.48
70555;BME280;58104;52.744;15.242;2023-02-11T11:55:02;101673.20;;;17.85;41.41
70555;BME280;58104;52.744;15.242;2023-02-11T11:57:25;101682.87;;;17.83;41.46
70555;BME280;58104;52.744;15.242;2023-02-11T11:59:46;101669.96;;;17.91;41.45
70555;BME280;58104;52.744;15.242;2023-02-11T12:02:28;101672.11;;;17.85;41.41
70555;BME280;58104;52.744;15.242;2023-02-11T12:04:45;101674.75;;;17.82;41.43
70555;BME280;58104;52.744;15.242;2023-02-11T12:07:10;101671.59;;;17.89;41.33
70555;BME280;58104;52.744;15.242;2023-02-11T12:09:32;101675.74;;;17.92;41.38
70555;BME280;58104;52.744;15.242;2023-02-11T12:12:05;101666.63;;;17.91;41.24
70555;BME280;58104;52.744;15.242;2023-02-11T12:14:25;101666.58;;;17.87;41.28
70555;BME280;58104;52.744;15.242;2023-02-11T12:16:51;101668.10;;;17.86;41.33
70555;BME280;58104;52.744;15.242;2023-02-11T12:19:17;101665.75;;;17.88;41.24
70555;BME280;58104;52.744;15.242;2023-02-11T12:21:42;101653.88;;;17.88;41.23
70555;BME280;58104;52.744;15.242;2023-02-11T12:24:12;101657.53;;;17.93;41.12
70555;BME280;58104;52.744;15.242;2023-02-11T12:26:30;101653.66;;;17.82;41.24
70555;BME280;58104;52.744;15.242;2023-02-11T12:29:00;101659.50;;;17.89;41.19
70555;BME280;58104;52.744;15.242;2023-02-11T12:31:24;101652.82;;;17.85;41.25
70555;BME280;58104;52.744;15.242;2023-02-11T12:33:59;101659.86;;;17.90;41.15
70555;BME280;58104;52.744;15.242;2023-02-11T12:36:13;101662.65;;;17.86;41.21
70555;BME280;58104;52.744;15.242;2023-02-11T12:38:44;101650.46;;;17.89;41.16
70555;BME280;58104;52.744;15.242;2023-02-11T12:41:08;101646.23;;;17.89;41.12
70555;BME280;58104;52.744;15.242;2023-02-11T12:43:26;101645.78;;;17.89;41.10
70555;BME280;58104;52.744;15.242;2023-02-11T12:45:58;101647.45;;;18.02;40.99